General Aviation Weather

Text Reports

Enter one or more of the following location identifiers separated by a space:

Zip Code, Four-Character ICAO or Three-Character IATA airport codes.

METAR - Aviation Routine Weather Report
KCDA - Lyndonville, Vermont
Updated at 7:55 AM GMT on December 04, 2016 (2:55 AM EST):
METAR KCDA 040755Z AUTO 28007KT 240V300 10SM OVC024 M03/M06 A3010 RMK AO2 T10271058
TAF - Terminal Area Forecast
KCDA - Lyndonville, Vermont
Updated at 7:55 AM GMT on December 04, 2016 (2:55 AM EST):
No TAF is currently available for this location.
Decoded:
No decoded TAF is available.
PIREP - Pilot Weather Report
KCDA - Lyndonville, Vermont
Updated at 7:55 AM GMT on December 04, 2016 (2:55 AM EST):
No PIREP is currently available for this location.
AIRMET - Airmens Meteorological Information
KCDA - Lyndonville, Vermont
Updated at 7:55 AM GMT on December 04, 2016 (2:55 AM EST):
No AIRMET is currently available for this location.
SIGMET - Significant Meteorological Information
KCDA - Lyndonville, Vermont
Updated at 7:55 AM GMT on December 04, 2016 (2:55 AM EST):
No SIGMET is currently available for this location.
NOTAM - Notice to Airmen
KCDA - Lyndonville, Vermont
Updated at 7:55 AM GMT on December 04, 2016 (2:55 AM EST):
No NOTAM is currently available for this location.
Forecast Area
KCDA - Lyndonville, Vermont
Updated at 7:55 AM GMT on December 04, 2016 (2:55 AM EST):
No NOTAM is currently available for this location.
Aviation Weather Maps